Terminal Aerodrome Forecast
Issued by NWS

Home | Current Version | Previous Version | Text Only | Print | Product List | Glossary On
Versions: 1 2 3 4 5 6 7 8 9 10 11 12 13 14 15 16 17
551
FTUS43 KEAX 030522
TAFSTJ
TAF
KSTJ 030522Z 0306/0406 04001KT P6SM SCT250
     FM031800 12004KT P6SM OVC100
     FM040000 10004KT P6SM VCSH OVC040
     FM040200 12005KT P6SM VCSH OVC030
     FM040400 14005KT 3SM -SHRA OVC020=

USA.gov is the U.S. government's official web portal to all federal, state and local government web resources and services.